createdAt,value
2018-12-09T00:01:31.548Z,4.97
2018-12-09T00:03:59.853Z,6.70
2018-12-09T00:06:28.078Z,7.47
2018-12-09T00:08:56.461Z,6.93
2018-12-09T00:11:24.841Z,8.40
2018-12-09T00:13:53.196Z,6.13
2018-12-09T00:16:21.577Z,6.80
2018-12-09T00:18:49.818Z,6.50
2018-12-09T00:21:18.151Z,7.60
2018-12-09T00:23:46.423Z,8.07
2018-12-09T00:26:14.774Z,6.67
2018-12-09T00:28:43.145Z,8.53
2018-12-09T00:31:11.479Z,7.60
2018-12-09T00:33:39.702Z,7.40
2018-12-09T00:36:08.202Z,6.13
2018-12-09T00:38:36.454Z,6.10
2018-12-09T00:41:04.701Z,5.90
2018-12-09T00:43:32.956Z,6.57
2018-12-09T00:46:01.262Z,5.30
2018-12-09T00:48:29.515Z,5.77
2018-12-09T00:50:57.762Z,6.00
2018-12-09T00:53:26.095Z,5.63
2018-12-09T00:55:54.411Z,5.60
2018-12-09T00:58:22.741Z,5.40
2018-12-09T01:00:51.070Z,6.50
2018-12-09T01:03:19.330Z,5.53
2018-12-09T01:05:47.562Z,5.07
2018-12-09T01:08:15.802Z,4.87
2018-12-09T01:10:44.073Z,4.57
2018-12-09T01:13:12.330Z,5.50
2018-12-09T01:15:40.606Z,5.33
2018-12-09T01:18:08.885Z,5.37
2018-12-09T01:20:37.216Z,4.90
2018-12-09T01:23:05.459Z,4.90
2018-12-09T01:25:33.808Z,6.37
2018-12-09T01:28:02.040Z,5.80
2018-12-09T01:30:30.374Z,4.30
2018-12-09T01:32:58.626Z,5.33
2018-12-09T01:35:27.040Z,6.43
2018-12-09T01:37:55.378Z,5.97
2018-12-09T01:40:23.626Z,4.80
2018-12-09T01:42:51.951Z,4.93
2018-12-09T01:45:20.211Z,5.83
2018-12-09T01:47:48.530Z,4.60
2018-12-09T01:50:16.811Z,5.00
2018-12-09T01:52:51.269Z,6.53
2018-12-09T01:55:19.501Z,5.07
2018-12-09T01:57:47.738Z,4.80
2018-12-09T02:00:16.026Z,4.90
2018-12-09T02:02:44.495Z,4.37
2018-12-09T02:05:12.814Z,5.13
2018-12-09T02:07:41.441Z,4.53
2018-12-09T02:10:10.070Z,5.10
2018-12-09T02:12:38.310Z,5.77
2018-12-09T02:15:06.772Z,3.97
2018-12-09T02:17:35.194Z,4.40
2018-12-09T02:20:03.595Z,5.00
2018-12-09T02:22:31.907Z,5.70
2018-12-09T02:25:00.144Z,3.60
2018-12-09T02:27:28.441Z,3.23
2018-12-09T02:29:56.955Z,3.40
2018-12-09T02:32:25.198Z,4.63
2018-12-09T02:34:53.599Z,3.83
2018-12-09T02:37:21.862Z,4.60
2018-12-09T02:39:50.090Z,4.40
2018-12-09T02:42:18.518Z,4.03
2018-12-09T02:44:46.842Z,4.03
2018-12-09T02:47:15.099Z,4.47
2018-12-09T02:49:43.451Z,4.53
2018-12-09T02:52:12.269Z,5.10
2018-12-09T02:54:40.762Z,4.43
2018-12-09T02:57:09.096Z,4.53
2018-12-09T02:59:37.333Z,5.03
2018-12-09T03:02:05.815Z,4.20
2018-12-09T03:04:34.087Z,5.53
2018-12-09T03:07:02.439Z,4.00
2018-12-09T03:09:30.673Z,4.53
2018-12-09T03:11:58.936Z,4.43
2018-12-09T03:14:27.684Z,4.30
2018-12-09T03:16:56.192Z,4.33
2018-12-09T03:19:24.650Z,5.37
2018-12-09T03:21:53.630Z,4.30
2018-12-09T03:24:23.227Z,4.20
2018-12-09T03:26:52.193Z,5.00
2018-12-09T03:29:20.431Z,3.13
2018-12-09T03:31:48.755Z,4.53
2018-12-09T03:34:17.069Z,4.23
2018-12-09T03:36:45.884Z,3.37
2018-12-09T03:39:14.393Z,4.87
2018-12-09T03:41:42.900Z,3.40
2018-12-09T03:44:11.647Z,4.40
2018-12-09T03:46:39.981Z,5.67
2018-12-09T03:49:08.269Z,4.43
2018-12-09T03:51:36.617Z,4.83
2018-12-09T03:54:04.955Z,4.27
2018-12-09T03:56:33.309Z,4.00
2018-12-09T03:59:01.719Z,4.23
2018-12-09T04:01:29.976Z,4.83
2018-12-09T04:03:58.302Z,5.37
2018-12-09T04:06:26.698Z,4.90
2018-12-09T04:08:55.031Z,4.53
2018-12-09T04:11:23.392Z,3.77
2018-12-09T04:13:51.730Z,5.53
2018-12-09T04:16:20.375Z,5.00
2018-12-09T04:18:48.632Z,5.03
2018-12-09T04:21:16.965Z,4.83
2018-12-09T04:23:45.929Z,4.53
2018-12-09T04:26:14.259Z,3.90
2018-12-09T04:28:42.582Z,3.80
2018-12-09T04:31:11.000Z,4.20
2018-12-09T04:33:39.286Z,5.57
2018-12-09T04:36:07.631Z,3.87
2018-12-09T04:38:35.873Z,5.23
2018-12-09T04:41:04.221Z,5.93
2018-12-09T04:43:32.471Z,4.60
2018-12-09T04:46:00.794Z,4.37
2018-12-09T04:48:29.278Z,3.83
2018-12-09T04:50:57.615Z,5.43
2018-12-09T04:53:25.854Z,4.53
2018-12-09T04:55:54.101Z,5.00
2018-12-09T04:58:22.886Z,6.57
2018-12-09T05:00:54.217Z,5.83
2018-12-09T05:03:22.712Z,5.03
2018-12-09T05:05:51.078Z,6.37
2018-12-09T05:08:19.355Z,5.47
2018-12-09T05:10:47.672Z,5.47
2018-12-09T05:13:15.973Z,4.63
2018-12-09T05:15:44.435Z,6.23
2018-12-09T05:18:12.665Z,4.60
2018-12-09T05:20:40.997Z,5.20
2018-12-09T05:23:09.304Z,4.50
2018-12-09T05:25:37.538Z,4.30
2018-12-09T05:28:05.856Z,5.30
2018-12-09T05:30:34.222Z,4.50
2018-12-09T05:33:02.435Z,4.80
2018-12-09T05:35:31.004Z,5.20
2018-12-09T05:37:59.246Z,4.97
2018-12-09T05:40:27.483Z,6.10
2018-12-09T05:42:55.754Z,5.50
2018-12-09T05:45:24.482Z,5.50
2018-12-09T05:47:52.824Z,4.73
2018-12-09T05:50:21.102Z,5.20
2018-12-09T05:52:49.327Z,5.17
2018-12-09T05:55:17.655Z,4.80
2018-12-09T05:57:46.513Z,3.93
2018-12-09T06:00:14.917Z,4.70
2018-12-09T06:02:52.887Z,4.63
2018-12-09T06:05:21.312Z,5.50
2018-12-09T06:07:50.252Z,4.93
2018-12-09T06:10:18.599Z,4.70
2018-12-09T06:12:47.014Z,4.40
2018-12-09T06:15:15.533Z,4.30
2018-12-09T06:17:43.795Z,5.10
2018-12-09T06:20:12.563Z,5.27
2018-12-09T06:22:40.787Z,5.40
2018-12-09T06:25:09.116Z,3.40
2018-12-09T06:27:37.367Z,4.43
2018-12-09T06:30:08.368Z,5.10
2018-12-09T06:32:36.685Z,5.00
2018-12-09T06:35:05.415Z,5.50
2018-12-09T06:37:33.735Z,5.50
2018-12-09T06:40:02.058Z,5.93
2018-12-09T06:42:30.402Z,7.00
2018-12-09T06:44:58.639Z,4.60
2018-12-09T06:47:26.981Z,5.50
2018-12-09T06:49:55.362Z,6.37
2018-12-09T06:52:23.790Z,4.33
2018-12-09T06:54:52.078Z,3.70
2018-12-09T06:57:20.554Z,4.80
2018-12-09T06:59:48.918Z,5.57
2018-12-09T07:02:17.241Z,5.63
2018-12-09T07:04:45.691Z,4.17
2018-12-09T07:07:21.014Z,5.20
2018-12-09T07:09:49.221Z,3.93
2018-12-09T07:12:17.836Z,4.50
2018-12-09T07:14:46.153Z,3.60
2018-12-09T07:17:14.598Z,4.80
2018-12-09T07:19:43.252Z,5.20
2018-12-09T07:22:11.635Z,3.90
2018-12-09T07:24:39.984Z,5.00
2018-12-09T07:27:08.322Z,3.27
2018-12-09T07:29:36.719Z,4.30
2018-12-09T07:32:05.751Z,3.90
2018-12-09T07:34:34.077Z,4.73
2018-12-09T07:37:02.306Z,4.57
2018-12-09T07:39:30.542Z,4.57
2018-12-09T07:41:58.841Z,4.03
2018-12-09T07:44:27.561Z,5.20
2018-12-09T07:46:55.835Z,5.20
2018-12-09T07:49:24.066Z,4.30
2018-12-09T07:51:52.314Z,4.40
2018-12-09T07:54:20.615Z,3.93
2018-12-09T07:56:48.922Z,4.07
2018-12-09T07:59:17.153Z,4.83
2018-12-09T08:01:45.399Z,4.63
2018-12-09T08:04:13.796Z,4.60
2018-12-09T08:06:42.106Z,4.30
2018-12-09T08:09:10.318Z,3.87
2018-12-09T08:11:38.572Z,4.27
2018-12-09T08:14:08.031Z,3.40
2018-12-09T08:16:36.538Z,4.47
2018-12-09T08:19:04.866Z,4.40
2018-12-09T08:21:33.165Z,3.97
2018-12-09T08:24:01.528Z,4.37
2018-12-09T08:26:29.996Z,4.87
2018-12-09T08:28:58.326Z,3.53
2018-12-09T08:31:26.541Z,4.93
2018-12-09T08:33:54.837Z,4.30
2018-12-09T08:36:23.114Z,6.13
2018-12-09T08:38:51.424Z,4.20
2018-12-09T08:41:19.666Z,3.97
2018-12-09T08:43:47.930Z,4.03
2018-12-09T08:46:16.183Z,4.97
2018-12-09T08:48:44.551Z,3.80
2018-12-09T08:51:12.833Z,5.17
2018-12-09T08:53:48.993Z,2.97
2018-12-09T08:56:17.256Z,3.97
2018-12-09T08:58:45.695Z,4.47
2018-12-09T09:01:13.915Z,4.30
2018-12-09T09:03:42.187Z,3.50
2018-12-09T09:06:10.521Z,2.33
2018-12-09T09:08:39.020Z,3.60
2018-12-09T09:11:07.238Z,3.10
2018-12-09T09:13:35.461Z,2.47
2018-12-09T09:16:03.862Z,2.37
2018-12-09T09:18:32.290Z,3.30
2018-12-09T09:21:00.545Z,2.20
2018-12-09T09:23:28.850Z,2.50
2018-12-09T09:25:57.081Z,2.30
2018-12-09T09:28:25.324Z,2.07
2018-12-09T09:30:53.567Z,3.50
2018-12-09T09:33:21.826Z,2.47
2018-12-09T09:35:50.150Z,2.70
2018-12-09T09:38:18.469Z,2.70
2018-12-09T09:40:46.791Z,2.57
2018-12-09T09:43:15.087Z,2.83
2018-12-09T09:45:43.346Z,2.40
2018-12-09T09:48:11.675Z,2.20
2018-12-09T09:50:39.994Z,2.73
2018-12-09T09:53:08.248Z,2.87
2018-12-09T09:55:36.609Z,2.70
2018-12-09T09:58:04.921Z,3.00
2018-12-09T10:00:33.181Z,4.07
2018-12-09T10:03:01.519Z,3.13
2018-12-09T10:05:29.857Z,2.77
2018-12-09T10:07:58.406Z,2.80
2018-12-09T10:10:26.851Z,2.70
2018-12-09T10:12:55.103Z,2.73
2018-12-09T10:15:23.470Z,2.27
2018-12-09T10:17:51.736Z,2.17
2018-12-09T10:20:20.107Z,2.63
2018-12-09T10:22:48.334Z,1.50
2018-12-09T10:25:16.680Z,2.40
2018-12-09T10:27:44.968Z,1.80
2018-12-09T10:30:13.357Z,2.17
2018-12-09T10:32:41.617Z,2.93
2018-12-09T10:35:09.906Z,1.70
2018-12-09T10:37:38.153Z,1.60
2018-12-09T10:40:06.940Z,2.03
2018-12-09T10:42:35.176Z,3.23
2018-12-09T10:45:03.786Z,1.63
2018-12-09T10:47:32.064Z,2.07
2018-12-09T10:50:00.335Z,2.00
2018-12-09T10:52:28.799Z,1.70
2018-12-09T10:54:57.034Z,2.13
2018-12-09T10:57:25.387Z,2.90
2018-12-09T10:59:53.806Z,2.00
2018-12-09T11:02:22.287Z,2.33
2018-12-09T11:04:50.533Z,2.87
2018-12-09T11:07:18.808Z,2.27
2018-12-09T11:09:47.103Z,1.83
2018-12-09T11:12:15.697Z,2.43
2018-12-09T11:14:44.495Z,2.57
2018-12-09T11:19:47.515Z,2.43
2018-12-09T11:22:16.244Z,2.70
2018-12-09T11:24:44.494Z,2.67
2018-12-09T11:27:12.767Z,2.47
2018-12-09T11:29:41.101Z,2.83
2018-12-09T11:32:09.451Z,2.03
2018-12-09T11:34:37.706Z,2.60
2018-12-09T11:37:05.941Z,2.93
2018-12-09T11:39:34.246Z,2.00
2018-12-09T11:42:02.605Z,2.40
2018-12-09T11:44:31.288Z,2.90
2018-12-09T11:46:59.703Z,2.97
2018-12-09T11:49:27.990Z,2.50
2018-12-09T11:51:56.210Z,2.27
2018-12-09T11:54:25.475Z,2.30
2018-12-09T11:56:53.755Z,2.73
2018-12-09T11:59:22.136Z,2.80
2018-12-09T12:01:50.442Z,2.90
2018-12-09T12:04:19.269Z,3.73
2018-12-09T12:06:47.532Z,2.87
2018-12-09T12:09:15.793Z,2.90
2018-12-09T12:11:44.355Z,3.30
2018-12-09T12:14:12.613Z,3.47
2018-12-09T12:16:40.901Z,3.87
2018-12-09T12:19:09.182Z,3.70
2018-12-09T12:21:37.440Z,3.60
2018-12-09T12:24:05.706Z,2.30
2018-12-09T12:26:33.971Z,4.27
2018-12-09T12:29:03.417Z,3.70
2018-12-09T12:31:31.656Z,2.07
2018-12-09T12:33:59.932Z,2.80
2018-12-09T12:36:28.322Z,2.20
2018-12-09T12:39:04.203Z,2.60
2018-12-09T12:41:32.431Z,2.87
2018-12-09T12:44:01.422Z,3.00
2018-12-09T12:46:29.742Z,2.40
2018-12-09T12:48:58.487Z,2.90
2018-12-09T12:51:26.850Z,2.80
2018-12-09T12:53:55.139Z,3.10
2018-12-09T12:56:23.558Z,2.60
2018-12-09T12:58:51.851Z,3.60
2018-12-09T13:01:20.273Z,3.97
2018-12-09T13:03:48.606Z,3.73
2018-12-09T13:06:17.561Z,3.47
2018-12-09T13:08:45.846Z,2.73
2018-12-09T13:11:14.082Z,3.97
2018-12-09T13:13:43.131Z,3.90
2018-12-09T13:16:11.526Z,4.10
2018-12-09T13:18:39.760Z,3.10
2018-12-09T13:21:08.188Z,3.20
2018-12-09T13:23:37.329Z,2.87
2018-12-09T13:26:06.348Z,2.37
2018-12-09T13:28:34.687Z,2.47
2018-12-09T13:31:03.196Z,2.20
2018-12-09T13:33:31.570Z,2.47
2018-12-09T13:35:59.913Z,2.43
2018-12-09T13:38:28.141Z,2.20
2018-12-09T13:40:56.511Z,2.13
2018-12-09T13:43:25.909Z,3.50
2018-12-09T13:45:54.157Z,2.50
2018-12-09T13:48:22.762Z,2.50
2018-12-09T13:50:51.538Z,3.07
2018-12-09T13:53:19.791Z,3.80
2018-12-09T13:55:48.203Z,3.70
2018-12-09T13:58:16.450Z,3.43
2018-12-09T14:00:44.749Z,3.27
2018-12-09T14:03:13.632Z,3.30
2018-12-09T14:05:41.893Z,3.67
2018-12-09T14:08:10.336Z,3.73
2018-12-09T14:10:38.575Z,4.80
2018-12-09T14:13:06.994Z,3.83
2018-12-09T14:15:35.381Z,4.00
2018-12-09T14:18:03.886Z,3.40
2018-12-09T14:20:32.127Z,4.47
2018-12-09T14:23:00.466Z,3.83
2018-12-09T14:25:28.697Z,3.67
2018-12-09T14:27:57.041Z,3.17
2018-12-09T14:30:26.383Z,3.00
2018-12-09T14:32:54.777Z,3.60
2018-12-09T14:35:23.055Z,3.60
2018-12-09T14:37:51.301Z,3.60
2018-12-09T14:40:19.675Z,2.80
2018-12-09T14:42:47.918Z,2.87
2018-12-09T14:45:16.159Z,3.23
2018-12-09T14:47:44.595Z,2.80
2018-12-09T14:50:14.171Z,3.60
2018-12-09T14:52:42.445Z,4.80
2018-12-09T14:55:10.825Z,4.03
2018-12-09T14:57:39.093Z,3.67
2018-12-09T15:00:08.793Z,3.47
2018-12-09T15:02:37.084Z,3.10
2018-12-09T15:05:05.855Z,3.17
2018-12-09T15:07:34.918Z,3.27
2018-12-09T15:10:08.630Z,2.93
2018-12-09T15:12:34.340Z,3.33
2018-12-09T15:15:02.895Z,2.60
2018-12-09T15:17:31.117Z,3.60
2018-12-09T15:19:59.395Z,2.90
2018-12-09T15:22:27.628Z,3.50
2018-12-09T15:24:55.909Z,2.87
2018-12-09T15:27:24.150Z,3.23
2018-12-09T15:29:52.759Z,2.70
2018-12-09T15:32:21.055Z,2.87
2018-12-09T15:34:49.284Z,2.90
2018-12-09T15:37:17.636Z,3.30
2018-12-09T15:39:45.971Z,3.30
2018-12-09T15:42:20.895Z,3.80
2018-12-09T15:44:49.142Z,2.97
2018-12-09T15:47:17.511Z,4.13
2018-12-09T15:49:45.856Z,3.33
2018-12-09T15:52:14.127Z,4.53
2018-12-09T15:54:42.388Z,4.50
2018-12-09T15:57:10.646Z,3.13
2018-12-09T15:59:38.983Z,4.67
2018-12-09T16:02:07.286Z,3.70
2018-12-09T16:04:35.555Z,3.83
2018-12-09T16:07:03.959Z,3.67
2018-12-09T16:09:32.247Z,4.47
2018-12-09T16:12:00.608Z,3.13
2018-12-09T16:14:28.889Z,4.57
2018-12-09T16:16:57.205Z,3.50
2018-12-09T16:19:25.459Z,4.13
2018-12-09T16:21:53.797Z,3.70
2018-12-09T16:24:22.461Z,3.80
2018-12-09T16:26:50.743Z,2.70
2018-12-09T16:29:19.069Z,3.53
2018-12-09T16:31:47.578Z,2.67
2018-12-09T16:34:15.908Z,3.57
2018-12-09T16:36:44.163Z,4.20
2018-12-09T16:39:12.446Z,3.13
2018-12-09T16:41:40.687Z,3.50
2018-12-09T16:44:09.010Z,3.60
2018-12-09T16:46:37.352Z,4.20
2018-12-09T16:49:05.672Z,2.80
2018-12-09T16:51:34.010Z,2.83
2018-12-09T16:54:02.227Z,2.90
2018-12-09T16:56:30.507Z,2.93
2018-12-09T16:58:58.757Z,3.53
2018-12-09T17:01:26.989Z,3.43
2018-12-09T17:03:55.232Z,3.37
2018-12-09T17:06:23.596Z,3.03
2018-12-09T17:08:51.903Z,2.90
2018-12-09T17:11:20.247Z,3.47
2018-12-09T17:13:48.537Z,2.80
2018-12-09T17:16:16.853Z,3.70
2018-12-09T17:18:45.310Z,3.30
2018-12-09T17:21:13.586Z,3.63
2018-12-09T17:23:41.818Z,2.90
2018-12-09T17:26:10.920Z,3.30
2018-12-09T17:28:39.159Z,3.40
2018-12-09T17:31:07.479Z,2.43
2018-12-09T17:33:35.747Z,2.57
2018-12-09T17:36:04.194Z,3.27
2018-12-09T17:38:32.635Z,4.47
2018-12-09T17:41:00.897Z,3.50
2018-12-09T17:43:29.134Z,3.60
2018-12-09T17:45:57.427Z,4.60
2018-12-09T17:48:26.172Z,3.23
2018-12-09T17:50:55.754Z,4.40
2018-12-09T17:53:24.006Z,5.13
2018-12-09T17:55:52.251Z,4.60
2018-12-09T17:58:20.510Z,4.17
2018-12-09T18:00:48.733Z,4.27
2018-12-09T18:03:17.035Z,3.67
2018-12-09T18:05:45.729Z,4.37
2018-12-09T18:08:14.104Z,3.87
2018-12-09T18:10:42.463Z,4.80
2018-12-09T18:13:10.718Z,4.53
2018-12-09T18:15:39.188Z,4.13
2018-12-09T18:18:07.514Z,3.57
2018-12-09T18:20:35.845Z,5.10
2018-12-09T18:23:04.129Z,4.20
2018-12-09T18:25:32.802Z,4.50
2018-12-09T18:28:01.767Z,4.77
2018-12-09T18:30:30.223Z,4.20
2018-12-09T18:32:58.671Z,3.90
2018-12-09T18:35:27.073Z,4.63
2018-12-09T18:37:55.706Z,4.97
2018-12-09T18:40:24.046Z,4.60
2018-12-09T18:42:52.296Z,4.40
2018-12-09T18:45:20.534Z,3.40
2018-12-09T18:47:48.767Z,4.20
2018-12-09T18:50:17.058Z,5.13
2018-12-09T18:52:45.378Z,4.70
2018-12-09T18:55:13.662Z,5.13
2018-12-09T18:57:41.957Z,5.10
2018-12-09T19:00:10.385Z,3.17
2018-12-09T19:02:38.682Z,4.03
2018-12-09T19:05:07.024Z,3.97
2018-12-09T19:07:35.346Z,3.17
2018-12-09T19:10:04.914Z,3.47
2018-12-09T19:12:33.254Z,5.07
2018-12-09T19:15:01.552Z,2.90
2018-12-09T19:17:29.897Z,3.07
2018-12-09T19:19:58.426Z,3.43
2018-12-09T19:22:26.766Z,3.60
2018-12-09T19:24:55.015Z,3.03
2018-12-09T19:27:23.381Z,2.70
2018-12-09T19:29:51.636Z,2.30
2018-12-09T19:32:20.032Z,2.87
2018-12-09T19:34:48.298Z,3.37
2018-12-09T19:37:16.559Z,3.47
2018-12-09T19:39:44.788Z,3.63
2018-12-09T19:42:13.844Z,3.83
2018-12-09T19:44:42.236Z,3.43
2018-12-09T19:47:10.521Z,3.43
2018-12-09T19:49:38.766Z,3.50
2018-12-09T19:52:07.044Z,3.30
2018-12-09T19:54:35.299Z,3.27
2018-12-09T19:57:04.698Z,3.20
2018-12-09T19:59:32.924Z,3.30
2018-12-09T20:02:01.743Z,3.87
2018-12-09T20:04:30.006Z,4.33
2018-12-09T20:06:58.243Z,3.60
2018-12-09T20:09:26.587Z,3.70
2018-12-09T20:11:54.854Z,3.43
2018-12-09T20:14:23.165Z,3.83
2018-12-09T20:16:51.428Z,3.60
2018-12-09T20:19:19.864Z,3.87
2018-12-09T20:21:48.426Z,4.80
2018-12-09T20:24:16.681Z,4.10
2018-12-09T20:26:44.935Z,4.90
2018-12-09T20:29:13.272Z,4.63
2018-12-09T20:31:41.584Z,3.80
2018-12-09T20:34:09.871Z,4.30
2018-12-09T20:36:38.106Z,4.90
2018-12-09T20:39:07.826Z,3.37
2018-12-09T20:41:36.191Z,4.20
2018-12-09T20:44:04.638Z,3.40
2018-12-09T20:46:32.894Z,3.50
2018-12-09T20:49:01.293Z,4.60
2018-12-09T20:51:29.688Z,3.40
2018-12-09T20:53:58.009Z,4.67
2018-12-09T20:56:26.449Z,3.80
2018-12-09T20:58:54.697Z,4.20
2018-12-09T21:01:23.166Z,4.40
2018-12-09T21:03:51.408Z,4.80
2018-12-09T21:06:19.691Z,3.63
2018-12-09T21:08:48.096Z,5.20
2018-12-09T21:11:16.387Z,4.57
2018-12-09T21:13:44.670Z,3.97
2018-12-09T21:16:13.014Z,3.93
2018-12-09T21:18:41.263Z,5.40
2018-12-09T21:21:09.611Z,3.73
2018-12-09T21:23:37.850Z,4.20
2018-12-09T21:26:06.115Z,3.33
2018-12-09T21:28:34.372Z,4.93
2018-12-09T21:31:02.622Z,3.47
2018-12-09T21:33:30.858Z,3.30
2018-12-09T21:35:59.125Z,3.20
2018-12-09T21:38:27.394Z,3.90
2018-12-09T21:40:55.626Z,3.07
2018-12-09T21:43:24.018Z,3.00
2018-12-09T21:45:52.277Z,2.90
2018-12-09T21:48:20.628Z,4.53
2018-12-09T21:50:48.885Z,4.37
2018-12-09T21:53:17.143Z,3.70
2018-12-09T21:55:45.494Z,3.07
2018-12-09T21:58:13.865Z,3.93
2018-12-09T22:00:42.264Z,3.23
2018-12-09T22:03:10.582Z,3.90
2018-12-09T22:05:38.851Z,2.33
2018-12-09T22:08:07.438Z,3.00
2018-12-09T22:10:35.740Z,2.70
2018-12-09T22:13:07.581Z,2.80
2018-12-09T22:15:35.877Z,2.60
2018-12-09T22:18:04.267Z,4.03
2018-12-09T22:20:32.553Z,2.37
2018-12-09T22:23:00.793Z,2.73
2018-12-09T22:25:29.124Z,3.63
2018-12-09T22:27:57.615Z,2.53
2018-12-09T22:30:25.923Z,3.50
2018-12-09T22:32:54.166Z,3.70
2018-12-09T22:35:22.448Z,3.77
2018-12-09T22:37:50.847Z,3.43
2018-12-09T22:40:19.098Z,3.90
2018-12-09T22:42:47.487Z,3.60
2018-12-09T22:45:15.767Z,2.20
2018-12-09T22:47:44.056Z,2.50
2018-12-09T22:50:12.369Z,3.23
2018-12-09T22:52:40.617Z,3.43
2018-12-09T22:55:08.956Z,3.80
2018-12-09T22:57:37.191Z,2.63
2018-12-09T23:00:15.098Z,3.10
2018-12-09T23:02:48.783Z,3.70
2018-12-09T23:05:17.211Z,3.50
2018-12-09T23:07:50.891Z,3.00
2018-12-09T23:10:19.172Z,2.70
2018-12-09T23:12:47.532Z,2.73
2018-12-09T23:15:15.968Z,3.07
2018-12-09T23:17:44.417Z,3.40
2018-12-09T23:20:12.795Z,2.60
2018-12-09T23:22:41.031Z,3.57
2018-12-09T23:25:09.362Z,2.53
2018-12-09T23:27:37.665Z,2.10
2018-12-09T23:30:08.045Z,3.63
2018-12-09T23:32:36.337Z,3.00
2018-12-09T23:35:06.214Z,2.67
2018-12-09T23:37:35.432Z,3.00
2018-12-09T23:40:05.332Z,2.90
2018-12-09T23:42:33.574Z,2.93
2018-12-09T23:45:01.851Z,3.43
2018-12-09T23:47:30.160Z,3.43
2018-12-09T23:49:58.391Z,3.67
2018-12-09T23:52:26.751Z,2.30
2018-12-09T23:54:55.002Z,3.17
2018-12-09T23:57:23.238Z,3.40
2018-12-09T23:59:51.479Z,4.00
